createdAt,value
2023-02-05T00:02:46.444Z,-2.80
2023-02-05T00:07:52.196Z,-2.73
2023-02-05T00:12:56.432Z,-2.71
2023-02-05T00:18:00.567Z,-2.73
2023-02-05T00:23:06.209Z,-2.74
2023-02-05T00:28:10.809Z,-2.70
2023-02-05T00:33:15.122Z,-2.69
2023-02-05T00:38:20.639Z,-2.68
2023-02-05T00:43:25.037Z,-2.68
2023-02-05T00:48:29.925Z,-2.74
2023-02-05T00:53:35.518Z,-2.66
2023-02-05T00:58:39.951Z,-2.63
2023-02-05T01:03:44.716Z,-2.61
2023-02-05T01:08:51.051Z,-2.65
2023-02-05T01:13:55.283Z,-2.74
2023-02-05T01:19:00.080Z,-2.76
2023-02-05T01:24:06.607Z,-2.86
2023-02-05T01:29:11.016Z,-2.99
2023-02-05T01:34:15.224Z,-3.14
2023-02-05T01:39:21.770Z,-3.16
2023-02-05T01:44:26.789Z,-3.15
2023-02-05T01:49:38.784Z,-3.11
2023-02-05T01:54:49.003Z,-3.25
2023-02-05T01:59:53.467Z,-3.51
2023-02-05T02:05:01.887Z,-3.69
2023-02-05T02:10:10.163Z,-3.88
2023-02-05T02:15:18.692Z,-3.99
2023-02-05T02:20:29.220Z,-4.24
2023-02-05T02:25:59.032Z,-4.27
2023-02-05T02:31:11.918Z,-4.51
2023-02-05T02:36:24.283Z,-4.62
2023-02-05T02:41:37.462Z,-5.04
2023-02-05T02:46:48.727Z,-5.01
2023-02-05T02:51:55.391Z,-5.18
2023-02-05T02:57:00.269Z,-5.33
2023-02-05T03:02:10.799Z,-5.41
2023-02-05T03:07:21.727Z,-5.77
2023-02-05T03:12:26.467Z,-5.90
2023-02-05T03:17:33.046Z,-6.05
2023-02-05T03:22:37.692Z,-6.19
2023-02-05T03:27:41.980Z,-6.26
2023-02-05T03:33:00.582Z,-6.25
2023-02-05T03:38:25.006Z,-6.20
2023-02-05T03:43:41.986Z,-6.24
2023-02-05T03:49:06.039Z,-6.17
2023-02-05T03:54:17.880Z,-6.37
2023-02-05T03:59:24.609Z,-6.49
2023-02-05T04:04:30.331Z,-6.70
2023-02-05T04:09:34.514Z,-6.87
2023-02-05T04:14:39.240Z,-7.08
2023-02-05T04:19:45.098Z,-7.12
2023-02-05T04:24:51.743Z,-7.26
2023-02-05T04:29:56.949Z,-7.31
2023-02-05T04:35:03.785Z,-7.22
2023-02-05T04:40:10.923Z,-7.07
2023-02-05T04:45:15.793Z,-6.77
2023-02-05T04:50:21.353Z,-6.39
2023-02-05T04:55:26.189Z,-6.23
2023-02-05T05:00:30.333Z,-6.20
2023-02-05T05:05:37.597Z,-6.26
2023-02-05T05:10:41.927Z,-6.38
2023-02-05T05:15:46.620Z,-6.56
2023-02-05T05:20:52.213Z,-6.72
2023-02-05T05:25:57.669Z,-6.98
2023-02-05T05:31:07.554Z,-6.89
2023-02-05T05:36:13.205Z,-6.93
2023-02-05T05:41:40.286Z,-7.10
2023-02-05T05:46:44.807Z,-7.39
2023-02-05T05:51:50.544Z,-7.63
2023-02-05T05:56:55.080Z,-7.69
2023-02-05T06:01:59.254Z,-7.86
2023-02-05T06:07:04.793Z,-7.97
2023-02-05T06:12:11.555Z,-8.06
2023-02-05T06:17:16.126Z,-8.17
2023-02-05T06:22:22.153Z,-8.25
2023-02-05T06:27:26.617Z,-8.32
2023-02-05T06:32:30.924Z,-8.31
2023-02-05T06:37:47.128Z,-8.05
2023-02-05T06:42:52.931Z,-7.77
2023-02-05T06:47:57.862Z,-7.55
2023-02-05T06:53:03.619Z,-7.29
2023-02-05T06:58:08.404Z,-7.06
2023-02-05T07:03:12.832Z,-6.77
2023-02-05T07:08:18.922Z,-6.55
2023-02-05T07:13:23.138Z,-6.24
2023-02-05T07:18:29.689Z,-5.97
2023-02-05T07:23:35.434Z,-5.83
2023-02-05T07:28:40.140Z,-5.62
2023-02-05T07:33:45.857Z,-5.55
2023-02-05T07:38:51.658Z,-5.40
2023-02-05T07:43:56.513Z,-5.19
2023-02-05T07:49:00.818Z,-5.07
2023-02-05T07:54:10.384Z,-4.99
2023-02-05T07:59:15.165Z,-4.91
2023-02-05T08:04:19.537Z,-4.72
2023-02-05T08:09:25.295Z,-4.63
2023-02-05T08:14:31.234Z,-4.60
2023-02-05T08:19:35.745Z,-4.53
2023-02-05T08:24:41.687Z,-4.33
2023-02-05T08:29:49.045Z,-4.16
2023-02-05T08:34:53.700Z,-3.99
2023-02-05T08:39:59.981Z,-3.79
2023-02-05T08:45:09.110Z,-3.73
2023-02-05T08:50:13.675Z,-3.69
2023-02-05T08:55:19.844Z,-3.81
2023-02-05T09:00:25.063Z,-3.82
2023-02-05T09:05:29.543Z,-3.85
2023-02-05T09:10:35.299Z,-3.94
2023-02-05T09:15:43.747Z,-3.98
2023-02-05T09:20:50.710Z,-3.88
2023-02-05T09:25:59.209Z,-3.88
2023-02-05T09:31:08.965Z,-4.09
2023-02-05T09:36:17.215Z,-4.12
2023-02-05T09:41:31.104Z,-4.21
2023-02-05T09:46:49.756Z,-4.36
2023-02-05T09:52:00.765Z,-4.38
2023-02-05T09:57:12.602Z,-4.11
2023-02-05T10:02:28.223Z,-4.24
2023-02-05T10:07:44.681Z,-3.90
2023-02-05T10:13:23.583Z,-4.09
2023-02-05T10:18:39.121Z,-3.84
2023-02-05T10:24:08.761Z,-3.62
2023-02-05T10:29:35.206Z,-3.34
2023-02-05T10:35:03.789Z,-3.31
2023-02-05T10:40:16.337Z,-3.26
2023-02-05T10:45:25.969Z,-2.80
2023-02-05T10:50:41.953Z,-3.01
2023-02-05T10:55:47.852Z,-2.93
2023-02-05T11:00:53.860Z,-2.74
2023-02-05T11:05:59.339Z,-2.68
2023-02-05T11:11:04.480Z,-2.64
2023-02-05T11:16:11.271Z,-2.55
2023-02-05T11:21:15.574Z,-2.56
2023-02-05T11:26:23.148Z,-2.26
2023-02-05T11:31:33.611Z,-2.33
2023-02-05T11:36:47.720Z,-2.23
2023-02-05T11:41:56.057Z,-2.18
2023-02-05T11:47:03.105Z,-2.21
2023-02-05T11:52:11.558Z,-1.98
2023-02-05T11:57:35.619Z,-2.20
2023-02-05T12:02:42.787Z,-2.03
2023-02-05T12:07:54.250Z,-2.02
2023-02-05T12:13:11.234Z,-1.44
2023-02-05T12:18:31.243Z,-1.17
2023-02-05T12:24:00.640Z,-1.30
2023-02-05T12:29:20.643Z,-1.32
2023-02-05T12:34:36.354Z,-1.25
2023-02-05T12:39:47.746Z,-1.51
2023-02-05T12:45:34.232Z,-1.88
2023-02-05T12:50:55.381Z,-1.61
2023-02-05T12:56:30.543Z,-1.84
2023-02-05T13:01:44.331Z,-2.11
2023-02-05T13:06:55.882Z,-2.01
2023-02-05T13:12:06.171Z,-2.05
2023-02-05T13:17:18.772Z,-2.28
2023-02-05T13:22:47.110Z,-2.18
2023-02-05T13:28:21.198Z,-2.30
2023-02-05T13:33:25.671Z,-2.13
2023-02-05T13:39:00.418Z,-2.14
2023-02-05T13:44:32.856Z,-2.10
2023-02-05T13:50:13.222Z,-2.04
2023-02-05T13:55:34.224Z,-2.25
2023-02-05T14:00:42.061Z,-2.37
2023-02-05T14:05:46.970Z,-2.28
2023-02-05T14:11:01.731Z,-2.39
2023-02-05T14:16:36.219Z,-2.29
2023-02-05T14:22:13.758Z,-2.35
2023-02-05T14:27:50.387Z,-2.49
2023-02-05T14:32:59.517Z,-2.58
2023-02-05T14:38:17.317Z,-2.51
2023-02-05T14:43:31.589Z,-2.69
2023-02-05T14:48:43.692Z,-2.84
2023-02-05T14:53:57.422Z,-3.03
2023-02-05T14:59:15.270Z,-2.98
2023-02-05T15:04:47.011Z,-2.94
2023-02-05T15:09:58.714Z,-2.98
2023-02-05T15:15:28.907Z,-2.93
2023-02-05T15:20:38.260Z,-3.00
2023-02-05T15:25:46.730Z,-3.05
2023-02-05T15:31:15.044Z,-3.06
2023-02-05T15:36:29.079Z,-3.25
2023-02-05T15:41:45.032Z,-3.30
2023-02-05T15:46:51.703Z,-3.47
2023-02-05T15:51:57.107Z,-3.61
2023-02-05T15:57:01.711Z,-3.73
2023-02-05T16:02:18.812Z,-3.78
2023-02-05T16:07:26.464Z,-3.80
2023-02-05T16:12:31.857Z,-3.76
2023-02-05T16:17:50.266Z,-3.81
2023-02-05T16:22:58.621Z,-3.88
2023-02-05T16:28:07.257Z,-3.93
2023-02-05T16:33:37.226Z,-4.06
2023-02-05T16:38:41.960Z,-3.99
2023-02-05T16:43:46.519Z,-3.98
2023-02-05T16:48:55.711Z,-4.05
2023-02-05T16:54:01.722Z,-4.07
2023-02-05T16:59:07.181Z,-3.96
2023-02-05T17:04:26.740Z,-4.06
2023-02-05T17:09:35.523Z,-3.95
2023-02-05T17:14:40.046Z,-4.07
2023-02-05T17:20:02.356Z,-4.03
2023-02-05T17:25:07.905Z,-4.00
2023-02-05T17:30:18.890Z,-4.13
2023-02-05T17:35:25.928Z,-4.11
2023-02-05T17:40:30.503Z,-4.05
2023-02-05T17:45:39.526Z,-3.96
2023-02-05T17:50:46.040Z,-4.16
2023-02-05T17:55:50.390Z,-4.15
2023-02-05T18:00:55.037Z,-4.13
2023-02-05T18:06:01.399Z,-4.02
2023-02-05T18:11:06.451Z,-4.02
2023-02-05T18:16:12.378Z,-4.05
2023-02-05T18:21:18.384Z,-4.12
2023-02-05T18:26:23.254Z,-4.06
2023-02-05T18:31:28.144Z,-4.10
2023-02-05T18:36:33.934Z,-4.03
2023-02-05T18:41:38.989Z,-4.12
2023-02-05T18:46:43.420Z,-4.02
2023-02-05T18:51:48.958Z,-4.05
2023-02-05T18:56:54.876Z,-4.03
2023-02-05T19:01:59.253Z,-4.08
2023-02-05T19:07:05.446Z,-4.13
2023-02-05T19:12:10.039Z,-4.22
2023-02-05T19:17:14.593Z,-4.09
2023-02-05T19:22:20.492Z,-4.08
2023-02-05T19:27:25.215Z,-4.13
2023-02-05T19:32:29.983Z,-4.11
2023-02-05T19:37:35.909Z,-4.10
2023-02-05T19:42:41.767Z,-4.15
2023-02-05T19:47:45.945Z,-4.01
2023-02-05T19:52:54.016Z,-3.97
2023-02-05T19:57:58.434Z,-3.95
2023-02-05T20:03:02.789Z,-3.95
2023-02-05T20:08:08.468Z,-3.93
2023-02-05T20:13:14.129Z,-4.02
2023-02-05T20:18:18.302Z,-3.87
2023-02-05T20:23:26.105Z,-3.87
2023-02-05T20:28:31.529Z,-3.86
2023-02-05T20:33:36.242Z,-3.91
2023-02-05T20:38:48.704Z,-3.96
2023-02-05T20:43:54.216Z,-3.90
2023-02-05T20:49:01.293Z,-3.88
2023-02-05T20:54:07.328Z,-3.88
2023-02-05T20:59:17.652Z,-3.91
2023-02-05T21:04:22.992Z,-3.91
2023-02-05T21:09:36.418Z,-3.90
2023-02-05T21:14:41.364Z,-3.99
2023-02-05T21:19:48.472Z,-3.86
2023-02-05T21:25:03.168Z,-3.92
2023-02-05T21:30:10.792Z,-3.98
2023-02-05T21:35:18.407Z,-3.99
2023-02-05T21:40:24.872Z,-3.97
2023-02-05T21:45:29.305Z,-3.93
2023-02-05T21:50:42.218Z,-3.92
2023-02-05T21:55:48.385Z,-3.93
2023-02-05T22:01:05.464Z,-3.87
2023-02-05T22:06:11.111Z,-3.96
2023-02-05T22:11:16.731Z,-3.94
2023-02-05T22:16:23.799Z,-3.94
2023-02-05T22:21:29.970Z,-3.97
2023-02-05T22:26:37.837Z,-3.88
2023-02-05T22:31:44.501Z,-3.86
2023-02-05T22:36:49.182Z,-3.91
2023-02-05T22:41:54.865Z,-3.78
2023-02-05T22:46:59.428Z,-3.84
2023-02-05T22:52:03.972Z,-3.88
2023-02-05T22:57:09.629Z,-3.95
2023-02-05T23:02:14.173Z,-3.79
2023-02-05T23:07:18.717Z,-3.90
2023-02-05T23:12:24.840Z,-3.85
2023-02-05T23:17:29.338Z,-3.82
2023-02-05T23:22:34.068Z,-3.85
2023-02-05T23:27:41.281Z,-3.95
2023-02-05T23:32:45.946Z,-3.96
2023-02-05T23:37:50.493Z,-3.96
2023-02-05T23:42:56.223Z,-3.97
2023-02-05T23:48:01.696Z,-3.85
2023-02-05T23:53:06.346Z,-3.79
2023-02-05T23:58:13.199Z,-3.68
